Time;durP1;ratioP1;P1;durP2;ratioP2;P2;SDS_P1;SDS_P2;PMS_P1;PMS_P2;Temp;Humidity;BMP_temperature;BMP_pressure;BME280_temperature;BME280_humidity;BME280_pressure;Samples;Min_cycle;Max_cycle;Signal;HPM_P1;HPM_P2
2024/01/02 00:00:09;;;;;;;1.70;1.70;;;;;;;;;;6386539;27;20291;-68
2024/01/02 00:03:16;;;;;;;1.80;1.80;;;;;;;;;;6387331;27;20302;-68
2024/01/02 00:06:19;;;;;;;1.90;1.80;;;;;;;;;;6386310;27;20292;-68
2024/01/02 00:09:23;;;;;;;1.70;1.70;;;;;;;;;;6386275;27;20290;-68
2024/01/02 00:12:28;;;;;;;1.80;1.80;;;;;;;;;;6408500;27;20477;-68
2024/01/02 00:15:33;;;;;;;1.70;1.70;;;;;;;;;;6411877;27;20302;-69
2024/01/02 00:18:37;;;;;;;1.80;1.63;;;;;;;;;;6392954;27;20595;-68
2024/01/02 00:21:41;;;;;;;3.70;1.80;;;;;;;;;;6412386;27;20290;-68
2024/01/02 00:24:45;;;;;;;1.90;1.80;;;;;;;;;;6411342;27;20294;-68
2024/01/02 00:27:49;;;;;;;2.00;1.90;;;;;;;;;;6410784;27;20291;-67
2024/01/02 00:30:55;;;;;;;1.97;1.87;;;;;;;;;;6386078;27;20600;-68
2024/01/02 00:33:59;;;;;;;1.90;1.90;;;;;;;;;;6385841;27;20291;-68
2024/01/02 00:37:03;;;;;;;1.87;1.87;;;;;;;;;;6386443;27;20295;-67
2024/01/02 00:40:09;;;;;;;2.20;2.10;;;;;;;;;;6385412;27;20287;-67
2024/01/02 00:43:13;;;;;;;2.03;2.03;;;;;;;;;;6386335;27;20588;-68
2024/01/02 00:46:18;;;;;;;1.67;1.67;;;;;;;;;;6385508;27;20295;-69
2024/01/02 00:49:22;;;;;;;1.90;1.90;;;;;;;;;;6385236;27;20558;-68
2024/01/02 00:52:26;;;;;;;1.97;1.87;;;;;;;;;;6383690;27;20300;-68
2024/01/02 00:55:30;;;;;;;1.80;1.80;;;;;;;;;;6384456;27;20596;-68
2024/01/02 00:58:34;;;;;;;1.90;1.70;;;;;;;;;;6385373;27;20299;-69
2024/01/02 01:01:40;;;;;;;1.70;1.70;;;;;;;;;;6385574;27;20296;-68
2024/01/02 01:04:44;;;;;;;1.90;1.80;;;;;;;;;;6385140;27;20290;-68
2024/01/02 01:07:48;;;;;;;1.83;1.83;;;;;;;;;;6385737;27;20318;-68
2024/01/02 01:10:52;;;;;;;1.90;1.80;;;;;;;;;;6367056;27;20290;-68
2024/01/02 01:13:56;;;;;;;1.73;1.73;;;;;;;;;;6391650;27;20302;-67
2024/01/02 01:17:01;;;;;;;2.03;1.90;;;;;;;;;;6411154;27;20303;-68
2024/01/02 01:20:08;;;;;;;1.87;1.77;;;;;;;;;;6407427;27;20306;-69
2024/01/02 01:23:12;;;;;;;1.90;1.80;;;;;;;;;;6409508;27;20547;-68
2024/01/02 01:26:16;;;;;;;1.60;1.60;;;;;;;;;;6408237;27;20299;-68
2024/01/02 01:29:21;;;;;;;2.40;1.50;;;;;;;;;;6378029;27;20299;-68
2024/01/02 01:32:27;;;;;;;2.20;1.80;;;;;;;;;;6385287;28;20294;-68
2024/01/02 01:35:31;;;;;;;1.50;1.50;;;;;;;;;;6384506;27;20302;-69
2024/01/02 01:38:35;;;;;;;1.50;1.50;;;;;;;;;;6389505;27;20299;-68
2024/01/02 01:41:39;;;;;;;1.53;1.53;;;;;;;;;;6390348;27;20284;-68
2024/01/02 01:44:44;;;;;;;1.73;1.70;;;;;;;;;;6389633;27;20292;-69
2024/01/02 01:47:49;;;;;;;2.73;1.60;;;;;;;;;;6389997;27;20299;-68
2024/01/02 01:50:53;;;;;;;1.67;1.67;;;;;;;;;;6389175;27;20321;-68
2024/01/02 01:53:59;;;;;;;1.50;1.50;;;;;;;;;;6368592;27;20595;-69
2024/01/02 01:57:05;;;;;;;1.67;1.67;;;;;;;;;;6389661;27;20322;-68
2024/01/02 02:00:10;;;;;;;1.73;1.73;;;;;;;;;;6370431;27;20571;-68
2024/01/02 02:03:15;;;;;;;1.40;1.40;;;;;;;;;;6388443;27;20481;-67
2024/01/02 02:06:19;;;;;;;1.70;1.70;;;;;;;;;;6389006;27;20314;-68
2024/01/02 02:09:24;;;;;;;1.73;1.60;;;;;;;;;;6387087;27;20291;-68
2024/01/02 02:12:28;;;;;;;1.90;1.80;;;;;;;;;;6409794;27;20295;-68
2024/01/02 02:15:34;;;;;;;1.40;1.40;;;;;;;;;;6414710;27;20294;-69
2024/01/02 02:18:39;;;;;;;1.73;1.73;;;;;;;;;;6414303;27;20469;-68
2024/01/02 02:21:44;;;;;;;1.60;1.60;;;;;;;;;;6414943;27;20298;-67
2024/01/02 02:24:50;;;;;;;1.63;1.63;;;;;;;;;;6412951;27;20332;-68
2024/01/02 02:27:54;;;;;;;1.53;1.53;;;;;;;;;;6413495;27;20303;-68
2024/01/02 02:30:58;;;;;;;1.60;1.60;;;;;;;;;;6388576;27;20298;-67
2024/01/02 02:34:02;;;;;;;1.60;1.60;;;;;;;;;;6388682;27;20281;-68
2024/01/02 02:37:07;;;;;;;1.83;1.73;;;;;;;;;;6388499;27;20341;-68
2024/01/02 02:40:13;;;;;;;1.90;1.90;;;;;;;;;;6388469;27;20299;-67
2024/01/02 02:43:17;;;;;;;1.67;1.67;;;;;;;;;;6389219;27;20286;-67
2024/01/02 02:46:21;;;;;;;2.50;1.90;;;;;;;;;;6388234;27;20299;-68
2024/01/02 02:49:26;;;;;;;1.60;1.60;;;;;;;;;;6388151;27;20290;-68
2024/01/02 02:52:30;;;;;;;1.80;1.70;;;;;;;;;;6385245;27;20298;-68
2024/01/02 02:55:36;;;;;;;3.13;1.70;;;;;;;;;;6369349;27;20306;-68
2024/01/02 02:58:40;;;;;;;1.97;1.97;;;;;;;;;;6403880;27;20307;-68
2024/01/02 03:01:44;;;;;;;1.83;1.80;;;;;;;;;;6340542;27;20314;-68
2024/01/02 03:04:48;;;;;;;1.70;1.70;;;;;;;;;;6393112;27;20299;-69
2024/01/02 03:07:52;;;;;;;3.23;2.20;;;;;;;;;;6362692;27;20287;-68
2024/01/02 03:10:59;;;;;;;2.70;2.03;;;;;;;;;;6353487;27;20292;-69
2024/01/02 03:14:03;;;;;;;2.83;1.73;;;;;;;;;;6335682;28;20284;-69
2024/01/02 03:17:08;;;;;;;1.97;1.97;;;;;;;;;;6361788;28;20263;-68
2024/01/02 03:20:12;;;;;;;2.07;2.00;;;;;;;;;;6361796;28;20488;-68
2024/01/02 03:23:16;;;;;;;2.57;2.00;;;;;;;;;;6362699;28;20240;-68
2024/01/02 03:26:21;;;;;;;1.80;1.80;;;;;;;;;;6342636;28;20487;-68
2024/01/02 03:29:26;;;;;;;2.07;2.07;;;;;;;;;;6347358;28;20293;-68
2024/01/02 03:32:30;;;;;;;1.90;1.80;;;;;;;;;;6336981;28;20292;-67
2024/01/02 03:35:34;;;;;;;1.90;1.80;;;;;;;;;;6336251;28;20286;-67
2024/01/02 03:38:39;;;;;;;1.97;1.80;;;;;;;;;;6335986;28;20289;-68
2024/01/02 03:41:44;;;;;;;2.00;1.90;;;;;;;;;;6336590;28;20292;-67
2024/01/02 03:44:48;;;;;;;2.77;1.93;;;;;;;;;;6336004;28;20288;-68
2024/01/02 03:47:53;;;;;;;1.97;1.97;;;;;;;;;;6336363;28;20292;-68
2024/01/02 03:50:57;;;;;;;2.00;2.00;;;;;;;;;;6336157;28;20282;-69
2024/01/02 03:54:01;;;;;;;1.90;1.90;;;;;;;;;;6340229;28;20353;-68
2024/01/02 03:57:06;;;;;;;2.20;2.10;;;;;;;;;;6361301;28;20298;-68
2024/01/02 04:00:11;;;;;;;2.00;1.90;;;;;;;;;;6359049;28;20299;-68
2024/01/02 04:03:15;;;;;;;1.70;1.70;;;;;;;;;;6342613;28;20300;-68
2024/01/02 04:06:19;;;;;;;1.70;1.60;;;;;;;;;;6317814;28;20299;-67
2024/01/02 04:09:23;;;;;;;2.07;1.80;;;;;;;;;;6346699;28;20304;-68
2024/01/02 04:12:29;;;;;;;1.80;1.80;;;;;;;;;;6344984;27;20580;-67
2024/01/02 04:15:33;;;;;;;2.00;2.00;;;;;;;;;;6310485;28;20292;-68
2024/01/02 04:18:37;;;;;;;2.93;1.67;;;;;;;;;;6309773;28;20287;-68
2024/01/02 04:21:41;;;;;;;1.53;1.53;;;;;;;;;;6367362;27;20377;-68
2024/01/02 04:24:46;;;;;;;1.57;1.57;;;;;;;;;;6385893;27;20337;-67
2024/01/02 04:27:53;;;;;;;1.83;1.80;;;;;;;;;;6385100;27;20301;-68
2024/01/02 04:30:57;;;;;;;1.53;1.53;;;;;;;;;;6361172;28;20566;-67
2024/01/02 04:34:01;;;;;;;1.50;1.50;;;;;;;;;;6360176;28;20299;-68
2024/01/02 04:37:05;;;;;;;1.53;1.53;;;;;;;;;;6375934;27;20300;-68
2024/01/02 04:40:11;;;;;;;1.63;1.53;;;;;;;;;;6385928;27;20305;-68
2024/01/02 04:43:17;;;;;;;1.87;1.80;;;;;;;;;;6400909;27;20294;-67
2024/01/02 04:46:21;;;;;;;1.70;1.70;;;;;;;;;;6386509;27;20294;-67
2024/01/02 04:49:25;;;;;;;1.80;1.80;;;;;;;;;;6385770;27;20298;-67
2024/01/02 04:52:29;;;;;;;1.73;1.73;;;;;;;;;;6386192;27;20326;-68
2024/01/02 04:55:34;;;;;;;1.90;1.90;;;;;;;;;;6386078;27;20286;-68
2024/01/02 04:58:39;;;;;;;1.83;1.83;;;;;;;;;;6385022;27;20297;-68
2024/01/02 05:01:43;;;;;;;2.03;1.93;;;;;;;;;;6385908;27;20286;-67
2024/01/02 05:04:47;;;;;;;1.67;1.67;;;;;;;;;;6385605;27;20303;-67
2024/01/02 05:07:51;;;;;;;1.93;1.87;;;;;;;;;;6385122;27;20302;-69
2024/01/02 05:10:55;;;;;;;2.03;1.93;;;;;;;;;;6385834;27;20290;-68
2024/01/02 05:14:00;;;;;;;1.83;1.73;;;;;;;;;;6384769;27;20294;-68
2024/01/02 05:17:05;;;;;;;1.73;1.70;;;;;;;;;;6384886;27;20280;-68
2024/01/02 05:20:09;;;;;;;1.77;1.77;;;;;;;;;;6384586;27;20294;-67
2024/01/02 05:23:14;;;;;;;1.63;1.63;;;;;;;;;;6385152;27;20307;-67
2024/01/02 05:26:19;;;;;;;3.30;1.67;;;;;;;;;;6385527;27;20261;-68
2024/01/02 05:29:25;;;;;;;2.10;2.03;;;;;;;;;;6370756;28;20294;-69
2024/01/02 05:32:29;;;;;;;2.63;1.63;;;;;;;;;;6359624;28;20287;-68
2024/01/02 05:35:33;;;;;;;1.60;1.60;;;;;;;;;;6359606;28;20468;-68
2024/01/02 05:38:37;;;;;;;1.47;1.47;;;;;;;;;;6359593;28;20290;-68
2024/01/02 05:41:41;;;;;;;1.40;1.40;;;;;;;;;;6359848;28;20294;-67
2024/01/02 05:44:47;;;;;;;1.30;1.30;;;;;;;;;;6359735;28;20283;-67
2024/01/02 05:47:51;;;;;;;1.33;1.33;;;;;;;;;;6359397;28;20307;-69
2024/01/02 05:50:55;;;;;;;1.43;1.43;;;;;;;;;;6358688;28;20575;-68
2024/01/02 05:53:59;;;;;;;1.57;1.57;;;;;;;;;;6381546;27;20361;-68
2024/01/02 05:57:03;;;;;;;1.53;1.40;;;;;;;;;;6385281;27;20313;-68
2024/01/02 06:00:10;;;;;;;1.53;1.43;;;;;;;;;;6366128;28;20287;-68
2024/01/02 06:03:14;;;;;;;1.63;1.40;;;;;;;;;;6384732;27;20304;-68
2024/01/02 06:06:18;;;;;;;1.37;1.37;;;;;;;;;;6385006;27;20288;-68
2024/01/02 06:09:22;;;;;;;1.57;1.47;;;;;;;;;;6384818;27;20298;-68
2024/01/02 06:12:26;;;;;;;1.67;1.67;;;;;;;;;;6385180;27;20311;-68
2024/01/02 06:15:32;;;;;;;1.40;1.40;;;;;;;;;;6385014;27;20292;-68
2024/01/02 06:18:35;;;;;;;1.60;1.60;;;;;;;;;;6366014;27;20289;-68
2024/01/02 06:21:40;;;;;;;1.40;1.30;;;;;;;;;;6384673;27;20289;-69
2024/01/02 06:24:44;;;;;;;1.10;1.10;;;;;;;;;;6370405;27;20304;-69
2024/01/02 06:27:47;;;;;;;1.47;1.47;;;;;;;;;;6387664;27;20296;-69
2024/01/02 06:30:53;;;;;;;1.20;1.20;;;;;;;;;;6363880;28;20309;-69
2024/01/02 06:33:57;;;;;;;1.20;1.20;;;;;;;;;;6363193;28;20479;-68
2024/01/02 06:37:01;;;;;;;1.20;1.20;;;;;;;;;;6363442;28;20295;-67
2024/01/02 06:40:06;;;;;;;1.47;1.47;;;;;;;;;;6362670;27;20290;-67
2024/01/02 06:43:10;;;;;;;1.50;1.40;;;;;;;;;;6363084;28;20289;-68
2024/01/02 06:46:16;;;;;;;1.40;1.30;;;;;;;;;;6345331;28;20285;-68
2024/01/02 06:49:20;;;;;;;1.37;1.33;;;;;;;;;;6343668;28;20290;-68
2024/01/02 06:52:24;;;;;;;1.50;1.50;;;;;;;;;;6388290;27;20427;-68
2024/01/02 06:55:28;;;;;;;1.50;1.40;;;;;;;;;;6388249;27;20298;-69
2024/01/02 06:58:32;;;;;;;1.33;1.33;;;;;;;;;;6388411;27;20292;-68
2024/01/02 07:01:37;;;;;;;1.40;1.40;;;;;;;;;;6388844;27;20294;-68
2024/01/02 07:04:42;;;;;;;1.53;1.43;;;;;;;;;;6388306;27;20288;-69
2024/01/02 07:07:46;;;;;;;3.60;1.73;;;;;;;;;;6388413;27;20552;-68
2024/01/02 07:10:50;;;;;;;1.60;1.50;;;;;;;;;;6388922;27;20290;-68
2024/01/02 07:13:54;;;;;;;1.60;1.50;;;;;;;;;;6388304;27;20324;-68
2024/01/02 07:17:00;;;;;;;1.67;1.67;;;;;;;;;;6388622;27;20293;-68
2024/01/02 07:20:05;;;;;;;1.63;1.63;;;;;;;;;;6390754;27;20305;-69
2024/01/02 07:23:09;;;;;;;2.70;1.80;;;;;;;;;;6413181;27;20372;-68
2024/01/02 07:26:13;;;;;;;1.43;1.43;;;;;;;;;;6414152;27;20258;-68
2024/01/02 07:29:17;;;;;;;1.83;1.83;;;;;;;;;;6378890;27;20292;-69
2024/01/02 07:32:23;;;;;;;2.00;1.73;;;;;;;;;;6362678;28;20239;-68
2024/01/02 07:35:28;;;;;;;1.90;1.77;;;;;;;;;;6360036;28;20298;-68
2024/01/02 07:38:32;;;;;;;1.83;1.50;;;;;;;;;;6360837;28;20295;-68
2024/01/02 07:41:36;;;;;;;1.60;1.50;;;;;;;;;;6362368;28;20286;-68
2024/01/02 07:44:40;;;;;;;2.00;1.60;;;;;;;;;;6362052;28;20296;-68
2024/01/02 07:47:46;;;;;;;2.00;1.70;;;;;;;;;;6343318;28;20292;-68
2024/01/02 07:50:50;;;;;;;2.20;1.83;;;;;;;;;;6362398;28;20299;-68
2024/01/02 07:53:54;;;;;;;1.70;1.60;;;;;;;;;;6355331;28;20290;-68
2024/01/02 07:56:59;;;;;;;1.83;1.83;;;;;;;;;;6344315;28;20290;-69
2024/01/02 08:00:08;;;;;;;6.47;2.03;;;;;;;;;;6361922;28;20303;-70
2024/01/02 08:03:17;;;;;;;2.30;2.10;;;;;;;;;;6367027;28;20290;-69
2024/01/02 08:06:21;;;;;;;1.90;1.87;;;;;;;;;;6362321;28;20292;-69
2024/01/02 08:09:26;;;;;;;1.60;1.60;;;;;;;;;;6361203;28;20307;-69
2024/01/02 08:12:30;;;;;;;1.50;1.50;;;;;;;;;;6336583;28;20291;-68
2024/01/02 08:15:34;;;;;;;1.70;1.70;;;;;;;;;;6336267;28;20292;-69
2024/01/02 08:18:46;;;;;;;1.83;1.83;;;;;;;;;;6336154;28;20307;-68
2024/01/02 08:21:50;;;;;;;1.77;1.77;;;;;;;;;;6336700;28;20325;-69
2024/01/02 08:24:54;;;;;;;1.80;1.80;;;;;;;;;;6336312;28;20296;-70
2024/01/02 08:27:58;;;;;;;2.57;2.00;;;;;;;;;;6338224;28;20289;-69
2024/01/02 08:31:02;;;;;;;1.80;1.80;;;;;;;;;;6378782;27;20308;-69
2024/01/02 08:34:08;;;;;;;2.60;2.10;;;;;;;;;;6402508;27;20294;-69
2024/01/02 08:37:13;;;;;;;2.00;2.00;;;;;;;;;;6387559;27;20281;-68
2024/01/02 08:40:17;;;;;;;2.77;2.00;;;;;;;;;;6386649;27;20294;-68
2024/01/02 08:43:21;;;;;;;1.80;1.70;;;;;;;;;;6386845;27;20292;-69
2024/01/02 08:46:26;;;;;;;3.03;2.30;;;;;;;;;;6386808;27;20294;-70
2024/01/02 08:49:31;;;;;;;2.03;1.90;;;;;;;;;;6386456;27;20295;-69
2024/01/02 08:52:36;;;;;;;2.57;1.77;;;;;;;;;;6376125;27;20696;-69
2024/01/02 08:55:40;;;;;;;2.03;1.93;;;;;;;;;;6383465;27;20368;-70
2024/01/02 08:58:44;;;;;;;2.30;2.10;;;;;;;;;;6385714;27;20289;-69
2024/01/02 09:01:51;;;;;;;1.80;1.80;;;;;;;;;;6386238;27;20290;-69
2024/01/02 09:04:56;;;;;;;2.00;2.00;;;;;;;;;;6386146;27;20291;-69
2024/01/02 09:08:01;;;;;;;2.00;2.00;;;;;;;;;;6385555;27;20297;-71
2024/01/02 09:11:05;;;;;;;2.00;1.90;;;;;;;;;;6366350;27;20274;-69
2024/01/02 09:14:09;;;;;;;2.30;1.83;;;;;;;;;;6385203;27;20287;-70
2024/01/02 09:17:13;;;;;;;2.10;2.00;;;;;;;;;;6384818;27;20425;-70
2024/01/02 09:20:19;;;;;;;2.10;2.00;;;;;;;;;;6366960;28;20305;-69
2024/01/02 09:23:23;;;;;;;2.10;2.10;;;;;;;;;;6385483;28;20289;-68
2024/01/02 09:26:27;;;;;;;1.97;1.87;;;;;;;;;;6384720;28;20461;-68
2024/01/02 09:29:31;;;;;;;1.90;1.90;;;;;;;;;;6385155;27;20589;-70
2024/01/02 09:32:35;;;;;;;1.80;1.80;;;;;;;;;;6385685;28;20285;-69
2024/01/02 09:35:43;;;;;;;1.87;1.87;;;;;;;;;;6384853;27;20285;-68
2024/01/02 09:38:47;;;;;;;2.40;2.30;;;;;;;;;;6385451;28;20306;-69
2024/01/02 09:42:02;;;;;;;2.30;2.20;;;;;;;;;;6385455;28;20321;-68
2024/01/02 09:45:13;;;;;;;2.20;2.10;;;;;;;;;;6366744;28;20605;-68
2024/01/02 09:48:29;;;;;;;2.20;2.00;;;;;;;;;;6384486;27;20305;-68
2024/01/02 09:51:44;;;;;;;2.10;2.10;;;;;;;;;;6364838;28;20297;-67
2024/01/02 09:54:52;;;;;;;1.90;1.90;;;;;;;;;;6374283;28;20291;-69
2024/01/02 09:58:03;;;;;;;2.20;2.00;;;;;;;;;;6386855;27;20296;-70
2024/01/02 10:01:12;;;;;;;2.13;2.10;;;;;;;;;;6390205;27;20305;-69
2024/01/02 10:04:30;;;;;;;2.07;1.97;;;;;;;;;;6389915;27;20295;-68
2024/01/02 10:07:51;;;;;;;2.20;2.20;;;;;;;;;;6390514;27;20307;-68
2024/01/02 10:11:04;;;;;;;2.40;2.30;;;;;;;;;;6388981;27;20584;-68
2024/01/02 10:14:11;;;;;;;2.20;2.10;;;;;;;;;;6388706;27;20298;-68
2024/01/02 10:17:21;;;;;;;2.10;2.10;;;;;;;;;;6390073;27;20234;-68
2024/01/02 10:20:36;;;;;;;2.23;2.13;;;;;;;;;;6389220;27;20355;-68
2024/01/02 10:23:51;;;;;;;2.30;2.20;;;;;;;;;;6389545;27;20295;-69
2024/01/02 10:27:04;;;;;;;2.23;2.13;;;;;;;;;;6389575;27;20296;-70
2024/01/02 10:30:11;;;;;;;2.27;2.17;;;;;;;;;;6389297;27;20460;-68
2024/01/02 10:33:21;;;;;;;3.43;2.50;;;;;;;;;;6388883;27;20297;-68
2024/01/02 10:36:27;;;;;;;1.97;1.87;;;;;;;;;;6366107;27;20314;-67
2024/01/02 10:39:37;;;;;;;2.30;2.30;;;;;;;;;;6363598;27;20366;-70
2024/01/02 10:42:47;;;;;;;2.67;2.47;;;;;;;;;;6364208;28;20374;-69
2024/01/02 10:46:06;;;;;;;2.20;2.10;;;;;;;;;;6363613;28;20294;-68
2024/01/02 10:49:21;;;;;;;2.17;2.00;;;;;;;;;;6363331;28;20298;-69
2024/01/02 10:52:27;;;;;;;1.90;1.90;;;;;;;;;;6354109;28;20297;-67
2024/01/02 10:55:41;;;;;;;2.07;2.00;;;;;;;;;;6358967;27;20294;-67
2024/01/02 10:58:53;;;;;;;2.33;2.13;;;;;;;;;;6363296;27;20298;-66
2024/01/02 11:02:04;;;;;;;2.23;2.03;;;;;;;;;;6363443;27;20299;-69
2024/01/02 11:05:11;;;;;;;2.27;2.07;;;;;;;;;;6362198;27;20295;-67
2024/01/02 11:08:20;;;;;;;1.70;1.70;;;;;;;;;;6362314;27;20298;-67
2024/01/02 11:11:26;;;;;;;1.90;1.90;;;;;;;;;;6379726;27;20305;-68
2024/01/02 11:14:30;;;;;;;1.93;1.90;;;;;;;;;;6388244;27;20288;-69
2024/01/02 11:17:37;;;;;;;2.07;2.00;;;;;;;;;;6388931;27;20301;-69
2024/01/02 11:20:50;;;;;;;2.20;2.10;;;;;;;;;;6388008;27;20294;-68
2024/01/02 11:23:57;;;;;;;3.53;2.10;;;;;;;;;;6387534;27;20290;-68
2024/01/02 11:27:04;;;;;;;5.03;2.10;;;;;;;;;;6388008;27;20310;-69
2024/01/02 11:30:11;;;;;;;2.67;2.30;;;;;;;;;;6387484;27;20299;-67
2024/01/02 11:33:23;;;;;;;2.07;1.97;;;;;;;;;;6387844;27;20304;-66
2024/01/02 11:36:40;;;;;;;2.23;2.13;;;;;;;;;;6387999;27;20295;-67
2024/01/02 11:39:53;;;;;;;2.30;2.30;;;;;;;;;;6387241;27;20488;-67
2024/01/02 11:43:03;;;;;;;3.10;2.90;;;;;;;;;;6387098;27;20482;-67
2024/01/02 11:46:09;;;;;;;1.97;1.97;;;;;;;;;;6387928;27;20289;-69
2024/01/02 11:49:18;;;;;;;2.50;2.40;;;;;;;;;;6387234;27;20616;-68
2024/01/02 11:52:23;;;;;;;3.13;2.10;;;;;;;;;;6371632;27;20285;-69
2024/01/02 11:55:37;;;;;;;2.63;2.20;;;;;;;;;;6361845;28;20291;-68
2024/01/02 11:58:49;;;;;;;2.80;2.40;;;;;;;;;;6377025;27;20298;-69
2024/01/02 12:02:01;;;;;;;2.20;2.20;;;;;;;;;;6362727;27;20310;-69
2024/01/02 12:05:11;;;;;;;2.93;2.23;;;;;;;;;;6385998;27;20290;-70
2024/01/02 12:08:21;;;;;;;2.63;2.23;;;;;;;;;;6386774;27;20295;-70
2024/01/02 12:11:27;;;;;;;2.10;2.10;;;;;;;;;;6387013;27;20285;-70
2024/01/02 12:14:41;;;;;;;2.00;2.00;;;;;;;;;;6386024;27;20296;-69
2024/01/02 12:17:52;;;;;;;2.23;2.20;;;;;;;;;;6386444;27;20288;-70
2024/01/02 12:21:00;;;;;;;2.33;2.23;;;;;;;;;;6385485;27;20293;-69
2024/01/02 12:24:06;;;;;;;1.97;1.97;;;;;;;;;;6367421;27;20289;-69
2024/01/02 12:27:10;;;;;;;2.43;2.20;;;;;;;;;;6386633;27;20289;-69
2024/01/02 12:30:22;;;;;;;2.30;2.20;;;;;;;;;;6386206;27;20294;-69
2024/01/02 12:33:33;;;;;;;2.63;2.47;;;;;;;;;;6386309;27;20289;-69
2024/01/02 12:36:41;;;;;;;2.10;2.00;;;;;;;;;;6387058;27;20290;-69
2024/01/02 12:39:46;;;;;;;2.23;2.23;;;;;;;;;;6386649;27;20569;-69
2024/01/02 12:42:50;;;;;;;2.50;2.30;;;;;;;;;;6385980;27;20304;-69
2024/01/02 12:46:03;;;;;;;2.03;2.03;;;;;;;;;;6386692;27;20285;-69
2024/01/02 12:49:10;;;;;;;2.20;2.03;;;;;;;;;;6386201;27;20289;-69
2024/01/02 12:52:20;;;;;;;2.73;2.50;;;;;;;;;;6386360;27;20293;-69
2024/01/02 12:55:25;;;;;;;2.30;2.17;;;;;;;;;;6386061;27;20285;-70
2024/01/02 12:58:31;;;;;;;2.27;2.17;;;;;;;;;;6385623;27;20293;-69
2024/01/02 13:01:37;;;;;;;3.90;2.00;;;;;;;;;;6386759;27;20299;-69
2024/01/02 13:04:43;;;;;;;2.50;2.30;;;;;;;;;;6385709;27;20294;-69
2024/01/02 13:07:47;;;;;;;2.10;2.00;;;;;;;;;;6385407;27;20292;-69
2024/01/02 13:10:51;;;;;;;2.13;1.90;;;;;;;;;;6386241;27;20294;-69
2024/01/02 13:13:55;;;;;;;2.27;2.00;;;;;;;;;;6385614;27;20288;-68
2024/01/02 13:17:01;;;;;;;2.03;1.97;;;;;;;;;;6384569;27;20296;-69
2024/01/02 13:20:08;;;;;;;2.10;1.90;;;;;;;;;;6384159;27;20293;-68
2024/01/02 13:23:12;;;;;;;1.83;1.83;;;;;;;;;;6385200;28;20301;-70
2024/01/02 13:26:17;;;;;;;2.80;2.17;;;;;;;;;;6385168;28;20250;-69
2024/01/02 13:29:22;;;;;;;1.97;1.80;;;;;;;;;;6384981;28;20306;-70
2024/01/02 13:32:28;;;;;;;2.20;2.10;;;;;;;;;;6386831;27;20306;-69
2024/01/02 13:35:32;;;;;;;4.03;2.17;;;;;;;;;;6390680;27;20288;-68
2024/01/02 13:38:41;;;;;;;2.00;1.90;;;;;;;;;;6390914;27;20291;-68
2024/01/02 13:41:45;;;;;;;1.83;1.83;;;;;;;;;;6391238;27;20309;-68
2024/01/02 13:44:50;;;;;;;2.23;2.03;;;;;;;;;;6390560;27;20311;-68
2024/01/02 13:47:58;;;;;;;2.03;1.93;;;;;;;;;;6390649;27;20404;-69
2024/01/02 13:51:04;;;;;;;1.90;1.90;;;;;;;;;;6391000;27;20285;-69
2024/01/02 13:54:08;;;;;;;1.80;1.70;;;;;;;;;;6390179;27;20303;-67
2024/01/02 13:57:12;;;;;;;2.00;1.90;;;;;;;;;;6390566;27;20289;-67
2024/01/02 14:00:17;;;;;;;1.90;1.90;;;;;;;;;;6390309;27;20292;-68
2024/01/02 14:03:22;;;;;;;2.00;1.83;;;;;;;;;;6389633;27;20292;-69
2024/01/02 14:06:27;;;;;;;1.90;1.87;;;;;;;;;;6390437;27;20291;-68
2024/01/02 14:09:31;;;;;;;1.80;1.80;;;;;;;;;;6389498;27;20415;-68
2024/01/02 14:12:37;;;;;;;1.83;1.83;;;;;;;;;;6390339;27;20298;-67
2024/01/02 14:15:41;;;;;;;1.93;1.83;;;;;;;;;;6389423;27;20293;-66
2024/01/02 14:18:48;;;;;;;1.73;1.73;;;;;;;;;;6389604;27;20293;-68
2024/01/02 14:21:53;;;;;;;1.90;1.80;;;;;;;;;;6389115;27;20316;-68
2024/01/02 14:25:10;;;;;;;1.87;1.70;;;;;;;;;;6390149;27;20292;-68
2024/01/02 14:28:20;;;;;;;1.80;1.80;;;;;;;;;;6389910;27;20298;-67
2024/01/02 14:31:32;;;;;;;1.77;1.77;;;;;;;;;;6390776;27;20295;-68
2024/01/02 14:34:47;;;;;;;1.77;1.77;;;;;;;;;;6389388;27;20289;-67
2024/01/02 14:37:59;;;;;;;2.70;1.67;;;;;;;;;;6389154;27;20309;-68
2024/01/02 14:41:12;;;;;;;3.13;1.97;;;;;;;;;;6389331;27;20289;-69
2024/01/02 14:44:26;;;;;;;1.70;1.70;;;;;;;;;;6387861;27;20298;-67
2024/01/02 14:47:34;;;;;;;1.70;1.60;;;;;;;;;;6390346;27;20289;-67
2024/01/02 14:50:56;;;;;;;4.20;1.67;;;;;;;;;;6372130;27;20340;-68
2024/01/02 14:54:18;;;;;;;2.93;1.87;;;;;;;;;;6374429;27;20300;-66
2024/01/02 14:57:28;;;;;;;1.60;1.60;;;;;;;;;;6389535;27;20291;-69
2024/01/02 15:00:34;;;;;;;1.43;1.43;;;;;;;;;;6388721;27;20598;-69
2024/01/02 15:03:43;;;;;;;1.60;1.60;;;;;;;;;;6388601;27;20288;-69
2024/01/02 15:06:51;;;;;;;1.90;1.80;;;;;;;;;;6389117;27;20546;-69
2024/01/02 15:10:01;;;;;;;1.50;1.50;;;;;;;;;;6388105;27;20293;-68
2024/01/02 15:13:14;;;;;;;1.30;1.30;;;;;;;;;;6388497;27;20288;-70
2024/01/02 15:16:28;;;;;;;1.50;1.50;;;;;;;;;;6388718;27;20289;-69
2024/01/02 15:19:47;;;;;;;1.60;1.60;;;;;;;;;;6388179;27;20288;-69
2024/01/02 15:23:01;;;;;;;2.10;1.90;;;;;;;;;;6388387;27;20301;-68
2024/01/02 15:26:13;;;;;;;1.63;1.60;;;;;;;;;;6387004;27;20278;-68
2024/01/02 15:29:19;;;;;;;1.60;1.50;;;;;;;;;;6387709;27;20298;-69
2024/01/02 15:32:28;;;;;;;1.47;1.47;;;;;;;;;;6387616;27;20362;-67
2024/01/02 15:35:33;;;;;;;1.83;1.73;;;;;;;;;;6387794;27;20574;-68
2024/01/02 15:38:54;;;;;;;1.50;1.50;;;;;;;;;;6386189;27;20316;-67
2024/01/02 15:42:04;;;;;;;1.33;1.33;;;;;;;;;;6386865;27;20309;-68
2024/01/02 15:45:14;;;;;;;1.80;1.70;;;;;;;;;;6387751;27;20297;-68
2024/01/02 15:48:28;;;;;;;1.97;1.40;;;;;;;;;;6386611;27;20280;-67
2024/01/02 15:51:38;;;;;;;2.80;1.50;;;;;;;;;;6387665;27;20285;-68
2024/01/02 15:54:55;;;;;;;1.43;1.43;;;;;;;;;;6386323;27;20294;-67
2024/01/02 15:57:59;;;;;;;1.47;1.40;;;;;;;;;;6386790;27;20300;-68
2024/01/02 16:01:04;;;;;;;1.83;1.50;;;;;;;;;;6386964;27;20320;-67
2024/01/02 16:04:26;;;;;;;3.90;1.50;;;;;;;;;;6386684;27;20293;-68
2024/01/02 16:07:49;;;;;;;1.30;1.30;;;;;;;;;;6386807;27;20291;-67
2024/01/02 16:11:17;;;;;;;1.43;1.43;;;;;;;;;;6383621;27;20289;-67
2024/01/02 16:14:44;;;;;;;1.43;1.33;;;;;;;;;;6385111;27;20289;-68
2024/01/02 16:18:04;;;;;;;1.40;1.40;;;;;;;;;;6385729;27;20303;-67
2024/01/02 16:21:21;;;;;;;2.10;1.23;;;;;;;;;;6386257;27;20320;-67
2024/01/02 16:24:53;;;;;;;1.33;1.33;;;;;;;;;;6367100;27;20480;-67
2024/01/02 16:28:08;;;;;;;1.20;1.20;;;;;;;;;;6378669;27;20283;-67
2024/01/02 16:31:32;;;;;;;3.20;2.10;;;;;;;;;;6386045;27;20595;-67
2024/01/02 16:34:57;;;;;;;1.93;1.60;;;;;;;;;;6366650;27;20293;-67
2024/01/02 16:38:08;;;;;;;1.53;1.53;;;;;;;;;;6384902;27;20305;-67
2024/01/02 16:41:21;;;;;;;1.60;1.50;;;;;;;;;;6366790;27;20507;-67
2024/01/02 16:44:28;;;;;;;1.47;1.47;;;;;;;;;;6385804;27;20295;-67
2024/01/02 16:47:33;;;;;;;1.60;1.57;;;;;;;;;;6386038;27;20302;-69
2024/01/02 16:50:37;;;;;;;1.30;1.30;;;;;;;;;;6385816;27;20300;-68
2024/01/02 16:53:42;;;;;;;1.57;1.57;;;;;;;;;;6384744;27;20284;-68
2024/01/02 16:56:46;;;;;;;2.17;1.40;;;;;;;;;;6386179;27;20303;-68
2024/01/02 16:59:53;;;;;;;1.50;1.50;;;;;;;;;;6385896;27;20543;-68
2024/01/02 17:02:57;;;;;;;1.10;1.10;;;;;;;;;;6385467;27;20280;-67
2024/01/02 17:06:09;;;;;;;1.30;1.30;;;;;;;;;;6367017;27;20291;-68
2024/01/02 17:09:16;;;;;;;1.40;1.40;;;;;;;;;;6385176;27;20297;-68
2024/01/02 17:12:21;;;;;;;1.30;1.30;;;;;;;;;;6342556;28;20309;-68
2024/01/02 17:15:27;;;;;;;2.40;1.40;;;;;;;;;;6382290;27;20296;-66
2024/01/02 17:18:34;;;;;;;2.30;1.47;;;;;;;;;;6384916;27;20295;-67
2024/01/02 17:21:38;;;;;;;1.20;1.20;;;;;;;;;;6385058;28;20304;-68
2024/01/02 17:24:42;;;;;;;1.20;1.20;;;;;;;;;;6382422;28;20292;-67
2024/01/02 17:27:46;;;;;;;2.73;1.30;;;;;;;;;;6384891;28;20291;-67
2024/01/02 17:30:59;;;;;;;1.20;1.20;;;;;;;;;;6384613;27;20308;-67
2024/01/02 17:34:09;;;;;;;1.10;1.10;;;;;;;;;;6367650;28;20293;-67
2024/01/02 17:37:14;;;;;;;1.30;1.30;;;;;;;;;;6358253;28;20298;-67
2024/01/02 17:40:18;;;;;;;1.53;1.40;;;;;;;;;;6358377;28;20456;-69
2024/01/02 17:43:25;;;;;;;3.33;1.40;;;;;;;;;;6359081;28;20300;-67
2024/01/02 17:46:36;;;;;;;2.03;1.37;;;;;;;;;;6358562;28;20304;-68
2024/01/02 17:49:41;;;;;;;1.43;1.33;;;;;;;;;;6359213;28;20293;-68
2024/01/02 17:52:45;;;;;;;1.40;1.40;;;;;;;;;;6359315;28;20301;-68
2024/01/02 17:55:49;;;;;;;1.10;1.10;;;;;;;;;;6358749;28;20300;-68
2024/01/02 17:58:56;;;;;;;1.40;1.30;;;;;;;;;;6359187;28;20300;-67
2024/01/02 18:02:02;;;;;;;1.70;1.60;;;;;;;;;;6358571;28;20299;-67
2024/01/02 18:05:08;;;;;;;1.50;1.20;;;;;;;;;;6357579;28;20492;-68
2024/01/02 18:08:20;;;;;;;1.80;1.30;;;;;;;;;;6358232;28;20478;-69
2024/01/02 18:11:29;;;;;;;1.20;1.20;;;;;;;;;;6358115;28;20294;-68
2024/01/02 18:14:45;;;;;;;1.47;1.10;;;;;;;;;;6357933;28;20294;-69
2024/01/02 18:17:59;;;;;;;1.40;1.30;;;;;;;;;;6358140;28;20289;-67
2024/01/02 18:21:11;;;;;;;1.43;1.40;;;;;;;;;;6362544;28;20320;-69
2024/01/02 18:24:23;;;;;;;1.57;1.47;;;;;;;;;;6363576;28;20400;-67
2024/01/02 18:27:49;;;;;;;1.53;1.43;;;;;;;;;;6366357;27;20289;-68
2024/01/02 18:31:00;;;;;;;1.40;1.40;;;;;;;;;;6362449;28;20292;-68
2024/01/02 18:34:22;;;;;;;1.37;1.33;;;;;;;;;;6362877;28;20296;-67
2024/01/02 18:37:32;;;;;;;1.70;1.30;;;;;;;;;;6361782;28;20305;-68
2024/01/02 18:40:48;;;;;;;1.20;1.10;;;;;;;;;;6362325;28;20298;-67